Time;durP1;ratioP1;P1;durP2;ratioP2;P2;SDS_P1;SDS_P2;PMS_P1;PMS_P2;Temp;Humidity;BMP_temperature;BMP_pressure;BME280_temperature;BME280_humidity;BME280_pressure;Samples;Min_cycle;Max_cycle;Signal;HPM_P1;HPM_P2
2021/08/23 00:00:36;;;;;;;3.27;2.13;;;15.40;1.00;;;;;;4994824;28;20201;-86
2021/08/23 00:03:03;;;;;;;4.27;2.30;;;15.40;1.00;;;;;;4990951;28;20203;-86
2021/08/23 00:05:28;;;;;;;2.87;2.07;;;15.40;1.00;;;;;;4991146;28;20190;-86
2021/08/23 00:07:54;;;;;;;2.30;2.10;;;15.50;1.00;;;;;;4992921;28;20208;-86
2021/08/23 00:10:19;;;;;;;2.50;2.17;;;15.40;1.00;;;;;;4998262;28;20221;-85
2021/08/23 00:12:45;;;;;;;2.97;2.23;;;15.40;1.00;;;;;;5009777;28;20237;-87
2021/08/23 00:15:14;;;;;;;3.07;1.90;;;15.50;1.00;;;;;;4993686;28;20650;-85
2021/08/23 00:17:40;;;;;;;2.50;1.73;;;15.40;1.00;;;;;;4996152;28;20277;-86
2021/08/23 00:20:06;;;;;;;4.90;1.73;;;15.40;1.00;;;;;;4996207;28;20185;-86
2021/08/23 00:22:36;;;;;;;3.70;1.90;;;15.30;1.00;;;;;;4974943;28;20297;-85
2021/08/23 00:25:02;;;;;;;3.63;1.90;;;15.30;1.00;;;;;;4992197;28;20190;-86
2021/08/23 00:27:29;;;;;;;1.77;1.67;;;15.30;1.00;;;;;;4999359;28;20211;-86
2021/08/23 00:29:55;;;;;;;3.40;1.83;;;;;;;;;;5000131;28;20191;-87
2021/08/23 00:32:21;;;;;;;1.93;1.73;;;15.20;1.00;;;;;;4998528;28;20303;-86
2021/08/23 00:34:47;;;;;;;2.60;2.00;;;15.20;1.00;;;;;;4997129;28;20210;-86
2021/08/23 00:37:17;;;;;;;2.27;2.00;;;15.30;1.00;;;;;;4973732;28;20237;-86
2021/08/23 00:39:43;;;;;;;2.63;2.23;;;15.20;1.00;;;;;;4999628;28;20193;-85
2021/08/23 00:42:08;;;;;;;2.03;1.80;;;15.20;1.00;;;;;;4993477;28;20264;-86
2021/08/23 00:44:36;;;;;;;1.80;1.60;;;15.20;1.00;;;;;;4997067;28;20193;-85
2021/08/23 00:47:04;;;;;;;2.93;2.13;;;15.30;1.00;;;;;;4995157;28;20195;-85
2021/08/23 00:49:32;;;;;;;5.93;2.00;;;15.30;1.00;;;;;;4997538;28;20199;-85
2021/08/23 00:51:58;;;;;;;2.47;2.27;;;15.30;1.00;;;;;;4998553;28;20281;-86
2021/08/23 00:54:24;;;;;;;2.30;2.10;;;15.30;1.00;;;;;;5001346;28;20204;-85
2021/08/23 00:56:50;;;;;;;2.13;1.93;;;15.20;1.00;;;;;;5001359;28;20221;-85
2021/08/23 00:59:16;;;;;;;2.40;2.20;;;15.30;1.00;;;;;;5000100;28;20189;-87
2021/08/23 01:02:06;;;;;;;3.90;2.20;;;15.30;1.00;;;;;;4999685;28;20195;-85
2021/08/23 01:04:40;;;;;;;2.40;2.07;;;15.30;1.00;;;;;;4991282;28;20185;-87
2021/08/23 01:07:10;;;;;;;2.70;2.10;;;15.20;1.00;;;;;;4979690;28;20635;-87
2021/08/23 01:09:39;;;;;;;2.43;2.07;;;15.30;1.00;;;;;;4995233;28;20219;-86
2021/08/23 01:12:07;;;;;;;3.23;2.37;;;15.30;1.00;;;;;;4990747;28;20226;-85
2021/08/23 01:14:33;;;;;;;2.53;2.30;;;15.30;1.00;;;;;;4995465;28;20196;-87
2021/08/23 01:17:00;;;;;;;2.83;1.70;;;15.30;1.00;;;;;;4995801;28;20206;-86
2021/08/23 01:19:27;;;;;;;2.37;2.00;;;15.40;1.00;;;;;;4991006;28;20199;-86
2021/08/23 01:21:55;;;;;;;5.10;2.37;;;15.50;1.00;;;;;;4994339;28;20209;-86
2021/08/23 01:24:21;;;;;;;5.07;2.27;;;15.50;1.00;;;;;;4997236;28;20195;-86
2021/08/23 01:26:49;;;;;;;2.20;1.93;;;15.50;1.00;;;;;;4997679;28;20194;-85
2021/08/23 01:29:40;;;;;;;2.13;1.93;;;15.50;1.00;;;;;;4994934;28;20216;-86
2021/08/23 01:32:12;;;;;;;3.03;2.13;;;15.50;1.00;;;;;;4990288;28;20222;-86
2021/08/23 01:34:39;;;;;;;2.83;2.30;;;13.60;1.00;;;;;;4995097;28;20189;-86
2021/08/23 01:37:05;;;;;;;4.40;2.43;;;15.60;1.00;;;;;;5003858;28;20249;-86
2021/08/23 01:39:33;;;;;;;2.53;2.20;;;15.50;1.00;;;;;;5003436;28;20534;-85
2021/08/23 01:42:00;;;;;;;3.77;2.37;;;15.60;1.00;;;;;;4995235;28;20735;-86
2021/08/23 01:44:26;;;;;;;2.70;2.40;;;15.80;1.00;;;;;;4996599;28;20552;-86
2021/08/23 01:46:52;;;;;;;3.93;2.27;;;15.60;1.00;;;;;;4996436;28;20183;-85
2021/08/23 01:49:17;;;;;;;2.60;2.40;;;15.50;1.00;;;;;;5009936;28;20194;-85
2021/08/23 01:51:43;;;;;;;4.57;2.10;;;15.60;1.00;;;;;;4995577;28;20191;-86
2021/08/23 01:54:08;;;;;;;3.57;2.20;;;15.60;1.00;;;;;;4993721;28;20234;-86
2021/08/23 01:56:34;;;;;;;2.10;1.90;;;15.60;1.00;;;;;;4999576;28;20219;-86
2021/08/23 01:59:01;;;;;;;4.20;2.53;;;15.60;1.00;;;;;;4978879;28;20680;-86
2021/08/23 02:01:31;;;;;;;3.20;1.93;;;15.60;1.00;;;;;;4996165;28;20265;-86
2021/08/23 02:03:57;;;;;;;2.47;2.20;;;15.50;1.00;;;;;;4992783;28;20314;-85
2021/08/23 02:06:24;;;;;;;2.70;2.50;;;15.50;1.00;;;;;;4996843;28;20673;-86
2021/08/23 02:08:51;;;;;;;3.10;2.80;;;15.50;1.00;;;;;;4991440;28;20640;-86
2021/08/23 02:11:17;;;;;;;2.47;2.27;;;15.50;1.00;;;;;;4987505;28;20205;-86
2021/08/23 02:13:42;;;;;;;4.20;2.60;;;15.50;1.00;;;;;;4994907;28;20231;-85
2021/08/23 02:16:08;;;;;;;2.93;2.60;;;15.50;1.00;;;;;;4988424;28;20208;-85
2021/08/23 02:18:34;;;;;;;2.07;1.90;;;15.40;1.00;;;;;;4987201;28;20284;-85
2021/08/23 02:21:00;;;;;;;2.60;2.20;;;15.40;1.00;;;;;;4997893;28;20274;-85
2021/08/23 02:23:26;;;;;;;2.83;2.10;;;15.40;1.00;;;;;;5001106;28;20229;-87
2021/08/23 02:25:53;;;;;;;2.80;2.57;;;15.40;1.00;;;;;;4995663;28;20190;-86
2021/08/23 02:28:19;;;;;;;2.30;2.10;;;15.40;1.00;;;;;;4998152;28;20185;-85
2021/08/23 02:30:45;;;;;;;2.23;2.03;;;15.40;1.00;;;;;;4997868;28;20217;-87
2021/08/23 02:33:11;;;;;;;2.43;2.23;;;15.30;1.00;;;;;;4987795;28;20217;-86
2021/08/23 02:35:36;;;;;;;3.63;2.33;;;15.30;1.00;;;;;;4962438;28;20201;-87
2021/08/23 02:38:02;;;;;;;3.13;2.20;;;15.40;1.00;;;;;;4996806;28;20211;-87
2021/08/23 02:40:27;;;;;;;2.40;2.17;;;15.40;1.00;;;;;;4996992;28;20626;-86
2021/08/23 02:42:53;;;;;;;3.53;2.70;;;15.40;1.00;;;;;;4998407;28;20187;-87
2021/08/23 02:45:19;;;;;;;3.23;2.40;;;15.30;1.00;;;;;;4998667;28;20188;-86
2021/08/23 02:47:44;;;;;;;3.03;2.50;;;15.30;1.00;;;;;;4988863;28;20224;-87
2021/08/23 02:50:10;;;;;;;4.17;2.70;;;15.20;1.00;;;;;;4994479;28;20210;-86
2021/08/23 02:52:37;;;;;;;4.20;2.90;;;15.30;1.00;;;;;;5011234;28;20198;-87
2021/08/23 02:55:04;;;;;;;3.47;2.47;;;15.30;1.00;;;;;;4999314;28;20198;-87
2021/08/23 02:57:29;;;;;;;2.70;2.43;;;15.30;1.00;;;;;;5000624;28;20222;-86
2021/08/23 02:59:55;;;;;;;2.93;2.63;;;15.30;1.00;;;;;;4988250;28;20194;-86
2021/08/23 03:02:21;;;;;;;3.17;2.50;;;15.20;1.00;;;;;;4995205;28;20225;-87
2021/08/23 03:04:46;;;;;;;3.87;2.33;;;15.30;1.00;;;;;;4993817;28;20278;-87
2021/08/23 03:07:12;;;;;;;4.50;2.60;;;15.40;1.00;;;;;;4976110;28;20199;-87
2021/08/23 03:09:38;;;;;;;2.80;2.50;;;15.70;1.00;;;;;;4996780;28;20199;-86
2021/08/23 03:12:04;;;;;;;3.97;2.23;;;15.40;1.00;;;;;;4967266;28;20807;-86
2021/08/23 03:14:30;;;;;;;3.20;2.33;;;15.40;1.00;;;;;;4974589;28;20183;-86
2021/08/23 03:16:56;;;;;;;2.93;2.63;;;15.40;1.00;;;;;;4993144;28;20223;-86
2021/08/23 03:19:21;;;;;;;2.80;2.40;;;15.50;1.00;;;;;;4994754;28;20205;-86
2021/08/23 03:21:48;;;;;;;4.23;2.33;;;15.60;1.00;;;;;;5002882;28;20204;-87
2021/08/23 03:24:14;;;;;;;4.70;2.20;;;15.60;1.00;;;;;;5002409;28;20661;-86
2021/08/23 03:26:40;;;;;;;2.83;2.30;;;15.60;1.00;;;;;;4988298;28;20197;-87
2021/08/23 03:29:06;;;;;;;3.83;2.57;;;15.50;1.00;;;;;;4997776;28;20192;-87
2021/08/23 03:31:32;;;;;;;2.80;2.03;;;15.50;1.00;;;;;;5000026;28;20204;-85
2021/08/23 03:33:58;;;;;;;3.23;2.73;;;15.60;1.00;;;;;;4999486;28;20193;-86
2021/08/23 03:36:23;;;;;;;2.80;2.23;;;15.60;1.00;;;;;;4988835;28;20240;-86
2021/08/23 03:38:49;;;;;;;5.63;3.07;;;15.60;1.00;;;;;;5001634;28;20196;-86
2021/08/23 03:41:16;;;;;;;4.63;2.50;;;15.70;1.00;;;;;;5001488;28;20253;-86
2021/08/23 03:43:42;;;;;;;6.03;2.87;;;15.60;1.00;;;;;;5002680;28;20234;-86
2021/08/23 03:46:07;;;;;;;6.53;2.70;;;15.60;1.00;;;;;;4995160;28;20187;-87
2021/08/23 03:48:33;;;;;;;3.40;2.50;;;15.60;1.00;;;;;;4998159;28;20576;-86
2021/08/23 03:50:59;;;;;;;3.63;2.80;;;15.70;1.00;;;;;;5001805;28;20219;-85
2021/08/23 03:53:25;;;;;;;2.97;2.73;;;15.60;1.00;;;;;;5000452;28;20647;-86
2021/08/23 03:55:50;;;;;;;3.60;2.50;;;15.60;1.00;;;;;;4991538;28;20174;-87
2021/08/23 03:58:16;;;;;;;3.23;2.27;;;15.60;1.00;;;;;;5002333;28;20212;-85
2021/08/23 04:00:41;;;;;;;4.70;2.60;;;15.60;1.00;;;;;;5006566;28;20217;-86
2021/08/23 04:03:07;;;;;;;4.63;2.90;;;15.60;1.00;;;;;;4998185;28;20205;-86
2021/08/23 04:05:33;;;;;;;6.57;2.50;;;15.50;1.00;;;;;;4994242;28;20254;-86
2021/08/23 04:07:59;;;;;;;3.80;2.87;;;15.50;1.00;;;;;;5001173;28;20273;-85
2021/08/23 04:10:24;;;;;;;3.57;3.10;;;15.60;1.00;;;;;;5001659;28;20246;-86
2021/08/23 04:12:50;;;;;;;3.57;2.90;;;15.60;1.00;;;;;;4998930;28;20231;-87
2021/08/23 04:15:15;;;;;;;4.93;2.63;;;15.60;1.00;;;;;;5000039;28;20269;-87
2021/08/23 04:17:41;;;;;;;5.43;2.60;;;15.60;1.00;;;;;;4996056;28;20219;-86
2021/08/23 04:20:08;;;;;;;3.27;2.80;;;15.70;1.00;;;;;;5002001;28;20223;-86
2021/08/23 04:22:33;;;;;;;3.63;2.93;;;15.60;1.00;;;;;;5004110;28;20202;-86
2021/08/23 04:24:59;;;;;;;4.23;3.10;;;15.60;1.00;;;;;;5000490;28;20226;-86
2021/08/23 04:27:24;;;;;;;3.87;3.07;;;15.60;1.00;;;;;;4998055;28;20257;-86
2021/08/23 04:29:50;;;;;;;3.70;2.83;;;15.70;1.00;;;;;;4980584;28;20205;-87
2021/08/23 04:32:16;;;;;;;4.47;3.23;;;15.60;1.00;;;;;;4987497;28;20201;-86
2021/08/23 04:34:41;;;;;;;6.70;2.77;;;15.60;1.00;;;;;;4997538;28;20173;-86
2021/08/23 04:37:07;;;;;;;4.97;3.10;;;15.70;1.00;;;;;;5005742;28;20213;-85
2021/08/23 04:39:33;;;;;;;3.63;2.70;;;15.70;1.00;;;;;;5000942;28;20196;-86
2021/08/23 04:42:00;;;;;;;4.63;2.93;;;15.70;1.00;;;;;;4998277;28;20182;-86
2021/08/23 04:44:27;;;;;;;3.10;2.80;;;15.70;1.00;;;;;;4991522;28;20189;-86
2021/08/23 04:46:52;;;;;;;6.17;2.80;;;15.70;1.00;;;;;;4992993;28;20190;-86
2021/08/23 04:49:18;;;;;;;4.03;3.23;;;15.70;1.00;;;;;;4996241;28;20200;-86
2021/08/23 04:51:44;;;;;;;4.73;3.33;;;15.70;1.00;;;;;;4990647;28;20684;-86
2021/08/23 04:54:10;;;;;;;3.17;2.60;;;15.70;1.00;;;;;;5013322;28;20194;-86
2021/08/23 04:56:36;;;;;;;5.13;2.97;;;15.80;1.00;;;;;;5010281;28;20667;-86
2021/08/23 04:59:02;;;;;;;4.03;3.00;;;15.80;1.00;;;;;;5004117;28;20240;-84
2021/08/23 05:01:27;;;;;;;6.07;3.50;;;15.70;1.00;;;;;;5005651;28;20277;-87
2021/08/23 05:03:53;;;;;;;3.70;3.23;;;15.70;1.00;;;;;;5010933;28;20228;-86
2021/08/23 05:06:19;;;;;;;5.47;3.20;;;15.70;1.00;;;;;;5001987;28;20718;-86
2021/08/23 05:08:44;;;;;;;6.10;3.90;;;15.70;1.00;;;;;;4997327;28;20202;-86
2021/08/23 05:11:10;;;;;;;4.47;3.07;;;15.70;1.00;;;;;;4999860;28;20290;-88
2021/08/23 05:13:39;;;;;;;4.30;3.43;;;15.70;1.00;;;;;;4998477;28;20258;-87
2021/08/23 05:16:05;;;;;;;4.47;3.40;;;18.50;1.00;;;;;;5001594;28;20208;-86
2021/08/23 05:18:31;;;;;;;4.53;3.20;;;15.70;1.00;;;;;;5000313;28;20289;-86
2021/08/23 05:21:02;;;;;;;5.10;3.50;;;15.70;1.00;;;;;;4980001;28;20255;-87
2021/08/23 05:23:28;;;;;;;6.67;4.07;;;15.80;1.00;;;;;;4999350;28;20215;-86
2021/08/23 05:25:54;;;;;;;7.13;4.23;;;15.80;1.00;;;;;;4998493;28;20310;-85
2021/08/23 05:28:19;;;;;;;5.93;3.43;;;15.90;1.00;;;;;;4998872;28;20183;-86
2021/08/23 05:30:45;;;;;;;7.30;4.37;;;15.90;1.00;;;;;;4995065;28;20195;-86
2021/08/23 05:33:10;;;;;;;4.67;3.53;;;16.00;1.00;;;;;;4992407;28;20198;-86
2021/08/23 05:35:36;;;;;;;7.00;3.50;;;15.90;1.00;;;;;;4999381;28;20199;-86
2021/08/23 05:38:02;;;;;;;4.03;3.63;;;15.90;1.00;;;;;;4999387;28;20267;-86
2021/08/23 05:40:30;;;;;;;3.63;3.33;;;15.90;1.00;;;;;;4997264;28;20190;-85
2021/08/23 05:42:56;;;;;;;5.40;3.30;;;15.90;1.00;;;;;;4994792;28;20169;-86
2021/08/23 05:45:22;;;;;;;5.17;3.80;;;15.90;1.00;;;;;;4998799;28;20210;-86
2021/08/23 05:47:47;;;;;;;3.23;2.93;;;16.00;1.00;;;;;;4982603;28;20209;-86
2021/08/23 05:50:13;;;;;;;5.97;3.60;;;16.10;1.00;;;;;;4999784;28;20195;-86
2021/08/23 05:52:39;;;;;;;6.80;4.20;;;16.00;1.00;;;;;;5000803;28;20193;-85
2021/08/23 05:55:05;;;;;;;5.67;3.47;;;16.10;1.00;;;;;;5002287;28;20293;-86
2021/08/23 05:57:30;;;;;;;6.47;4.13;;;16.10;1.00;;;;;;5005443;28;20231;-86
2021/08/23 05:59:56;;;;;;;5.10;3.87;;;16.10;1.00;;;;;;4991009;28;20590;-86
2021/08/23 06:02:22;;;;;;;4.53;3.70;;;16.20;1.00;;;;;;5002829;28;20195;-85
2021/08/23 06:04:47;;;;;;;4.20;3.63;;;16.20;1.00;;;;;;4986600;28;20189;-85
2021/08/23 06:07:16;;;;;;;4.83;4.10;;;16.30;1.00;;;;;;4996910;28;20185;-87
2021/08/23 06:09:42;;;;;;;5.33;3.47;;;16.50;1.00;;;;;;4974906;28;20580;-86
2021/08/23 06:12:08;;;;;;;4.43;3.60;;;16.60;1.00;;;;;;4999752;28;20307;-86
2021/08/23 06:14:34;;;;;;;5.17;3.60;;;16.60;1.00;;;;;;4998118;28;20553;-85
2021/08/23 06:17:00;;;;;;;5.60;3.47;;;;;;;;;;5000976;28;20207;-87
2021/08/23 06:19:25;;;;;;;5.67;3.53;;;16.80;1.00;;;;;;4990512;28;20189;-87
2021/08/23 06:21:51;;;;;;;7.03;3.70;;;16.80;1.00;;;;;;5002876;28;20199;-86
2021/08/23 06:24:17;;;;;;;4.13;3.73;;;16.90;1.00;;;;;;4995142;28;20192;-85
2021/08/23 06:26:42;;;;;;;8.87;3.67;;;17.00;1.00;;;;;;4998728;28;20288;-84
2021/08/23 06:29:09;;;;;;;4.73;3.80;;;17.10;1.00;;;;;;4992933;28;20608;-86
2021/08/23 06:31:36;;;;;;;4.33;3.90;;;17.20;1.00;;;;;;5002608;28;20191;-85
2021/08/23 06:34:04;;;;;;;4.37;3.70;;;17.30;1.00;;;;;;5008116;28;20617;-85
2021/08/23 06:36:32;;;;;;;4.23;3.77;;;17.40;1.00;;;;;;5004239;28;20632;-85
2021/08/23 06:38:57;;;;;;;7.23;3.27;;;17.60;1.00;;;;;;5002667;28;20244;-83
2021/08/23 06:41:25;;;;;;;5.10;3.70;;;17.60;1.00;;;;;;5001233;28;20233;-85
2021/08/23 06:43:50;;;;;;;4.90;3.40;;;17.70;1.00;;;;;;5005174;28;20193;-84
2021/08/23 06:46:17;;;;;;;4.77;3.67;;;17.90;1.00;;;;;;4998831;28;20189;-85
2021/08/23 06:48:43;;;;;;;3.33;3.03;;;18.00;1.00;;;;;;4999061;28;20198;-86
2021/08/23 06:51:09;;;;;;;4.63;3.60;;;18.30;1.00;;;;;;4998866;28;20262;-86
2021/08/23 06:53:34;;;;;;;4.90;3.53;;;18.20;1.00;;;;;;4996902;28;20203;-86
2021/08/23 06:56:00;;;;;;;5.73;3.30;;;18.40;1.00;;;;;;5013423;28;20689;-85
2021/08/23 06:58:26;;;;;;;3.93;3.00;;;18.50;1.00;;;;;;4999982;28;20652;-86
2021/08/23 07:00:52;;;;;;;4.30;3.90;;;18.50;1.00;;;;;;4990423;28;20190;-86
2021/08/23 07:03:18;;;;;;;5.47;3.70;;;18.70;1.00;;;;;;4983944;28;20264;-85
2021/08/23 07:05:43;;;;;;;5.90;4.27;;;18.70;1.00;;;;;;4988798;28;20190;-85
2021/08/23 07:08:09;;;;;;;4.27;3.63;;;18.90;1.00;;;;;;5000777;28;20217;-87
2021/08/23 07:10:34;;;;;;;4.20;3.80;;;18.90;1.00;;;;;;5001714;28;20189;-86
2021/08/23 07:13:00;;;;;;;4.23;3.63;;;18.80;1.00;;;;;;4999742;28;20218;-85
2021/08/23 07:15:26;;;;;;;6.03;3.70;;;18.80;1.00;;;;;;5003062;28;20190;-86
2021/08/23 07:17:52;;;;;;;5.20;4.03;;;18.90;1.00;;;;;;5003865;28;20223;-86
2021/08/23 07:20:18;;;;;;;4.97;3.77;;;19.00;1.00;;;;;;5003282;28;20186;-86
2021/08/23 07:22:44;;;;;;;4.03;3.73;;;19.10;1.00;;;;;;5002310;28;20688;-85
2021/08/23 07:25:10;;;;;;;4.47;4.07;;;19.20;1.00;;;;;;5001140;28;20192;-88
2021/08/23 07:27:36;;;;;;;5.10;4.10;;;19.10;1.00;;;;;;5015472;28;20636;-88
2021/08/23 07:30:04;;;;;;;7.53;4.63;;;19.10;1.00;;;;;;4998982;28;20196;-87
2021/08/23 07:32:30;;;;;;;4.47;4.00;;;19.20;1.00;;;;;;5004252;28;20193;-87
2021/08/23 07:34:55;;;;;;;6.10;4.37;;;19.40;1.00;;;;;;5002380;28;20258;-86
2021/08/23 07:37:21;;;;;;;5.90;4.67;;;19.70;1.00;;;;;;5008823;28;20226;-89
2021/08/23 07:39:47;;;;;;;4.83;4.43;;;19.70;1.00;;;;;;4997531;28;20219;-91
2021/08/23 07:42:13;;;;;;;4.97;4.13;;;19.90;1.00;;;;;;4998577;28;20193;-87
2021/08/23 07:44:39;;;;;;;4.90;4.50;;;20.10;1.00;;;;;;5002011;28;20204;-87
2021/08/23 07:47:06;;;;;;;5.00;4.50;;;20.30;1.00;;;;;;5003364;28;20192;-87
2021/08/23 07:49:32;;;;;;;4.47;3.97;;;20.40;1.00;;;;;;5000748;28;20196;-83
2021/08/23 07:51:58;;;;;;;4.60;4.20;;;20.40;1.00;;;;;;5003443;28;20595;-85
2021/08/23 07:54:24;;;;;;;5.43;4.43;;;20.60;1.00;;;;;;5013722;28;20190;-85
2021/08/23 07:56:49;;;;;;;5.33;4.10;;;20.80;1.00;;;;;;5001530;28;20316;-86
2021/08/23 07:59:15;;;;;;;4.33;3.90;;;20.80;1.00;;;;;;4989099;28;20186;-86
2021/08/23 08:01:41;;;;;;;4.40;4.00;;;20.90;1.00;;;;;;4982337;28;20658;-85
2021/08/23 08:04:07;;;;;;;6.23;4.73;;;20.90;1.00;;;;;;4990930;28;20525;-86
2021/08/23 08:06:32;;;;;;;5.17;4.50;;;20.80;1.00;;;;;;5003462;28;20349;-86
2021/08/23 08:08:58;;;;;;;5.00;4.40;;;20.90;1.00;;;;;;4995629;28;20706;-85
2021/08/23 08:11:23;;;;;;;6.00;5.03;;;20.90;1.00;;;;;;5001104;28;20196;-87
2021/08/23 08:13:49;;;;;;;5.00;4.60;;;21.00;1.00;;;;;;4989640;28;20214;-88
2021/08/23 08:16:15;;;;;;;4.80;4.30;;;21.20;1.00;;;;;;4995263;28;20436;-86
2021/08/23 08:18:41;;;;;;;4.70;4.30;;;21.30;1.00;;;;;;5004620;28;20209;-87
2021/08/23 08:21:06;;;;;;;4.77;4.37;;;21.40;1.00;;;;;;4994180;28;20189;-88
2021/08/23 08:23:32;;;;;;;4.77;4.37;;;21.40;1.00;;;;;;4995897;28;20199;-86
2021/08/23 08:25:58;;;;;;;5.13;4.50;;;21.30;1.00;;;;;;4994588;28;21124;-85
2021/08/23 08:28:23;;;;;;;5.37;4.30;;;21.30;1.00;;;;;;4997012;28;20229;-88
2021/08/23 08:30:49;;;;;;;5.70;4.37;;;21.40;1.00;;;;;;4994901;28;20373;-89
2021/08/23 08:33:15;;;;;;;4.33;3.93;;;21.60;1.00;;;;;;5002717;28;20199;-88
2021/08/23 08:35:41;;;;;;;4.97;4.47;;;21.70;1.00;;;;;;4999248;28;20250;-88
2021/08/23 08:38:07;;;;;;;5.63;4.27;;;21.90;1.00;;;;;;5000421;28;20270;-85
2021/08/23 08:40:33;;;;;;;5.00;4.50;;;21.90;1.00;;;;;;4996662;28;20275;-83
2021/08/23 08:42:58;;;;;;;5.30;4.80;;;22.20;1.00;;;;;;4993012;28;20199;-85
2021/08/23 08:45:27;;;;;;;5.53;4.90;;;22.20;1.00;;;;;;4996848;28;20198;-85
2021/08/23 08:47:55;;;;;;;9.23;5.63;;;22.20;1.00;;;;;;4996070;28;20196;-87
2021/08/23 08:50:22;;;;;;;5.30;4.23;;;22.10;1.00;;;;;;4998903;28;20202;-87
2021/08/23 08:52:48;;;;;;;4.93;4.43;;;22.20;1.00;;;;;;4994062;28;20233;-86
2021/08/23 08:55:15;;;;;;;5.10;4.60;;;22.20;1.00;;;;;;4990896;28;20201;-87
2021/08/23 08:57:41;;;;;;;4.90;4.50;;;22.20;1.00;;;;;;4994756;28;20619;-87
2021/08/23 09:00:08;;;;;;;6.67;4.60;;;22.10;1.00;;;;;;4992512;28;20192;-86
2021/08/23 09:02:35;;;;;;;5.27;4.77;;;22.10;1.00;;;;;;4991921;28;20225;-86
2021/08/23 09:05:16;;;;;;;5.00;4.27;;;22.30;1.00;;;;;;4995705;28;20815;-86
2021/08/23 09:07:50;;;;;;;5.17;4.73;;;22.40;1.00;;;;;;4997650;28;20203;-86
2021/08/23 09:10:18;;;;;;;5.00;4.43;;;22.50;1.00;;;;;;4994094;28;20815;-84
2021/08/23 09:12:44;;;;;;;5.50;4.70;;;22.80;1.00;;;;;;4995699;28;20211;-86
2021/08/23 09:15:10;;;;;;;4.50;4.10;;;22.90;1.00;;;;;;4996701;28;20184;-86
2021/08/23 09:17:36;;;;;;;4.93;4.37;;;23.20;1.00;;;;;;4996215;28;20220;-84
2021/08/23 09:20:06;;;;;;;4.78;4.28;;;23.40;1.00;;;;;;5001137;28;20285;-84
2021/08/23 09:22:33;;;;;;;4.82;4.43;;;23.60;1.00;;;;;;4997848;28;20672;-85
2021/08/23 09:25:12;;;;;;;4.43;4.10;;;23.50;1.00;;;;;;4987575;28;20195;-84
2021/08/23 09:27:38;;;;;;;5.80;4.25;;;23.70;1.00;;;;;;4983328;28;20193;-85
2021/08/23 09:30:11;;;;;;;5.22;4.40;;;24.00;1.00;;;;;;4994858;28;20193;-85
2021/08/23 09:32:48;;;;;;;5.05;4.55;;;23.90;1.00;;;;;;4999965;28;20198;-87
2021/08/23 09:35:29;;;;;;;5.28;3.85;;;23.60;1.00;;;;;;5002187;28;20208;-88
2021/08/23 09:37:57;;;;;;;5.18;4.68;;;22.90;1.00;;;;;;4994480;28;20966;-90
2021/08/23 09:40:31;;;;;;;7.63;4.20;;;22.50;1.00;;;;;;4997206;28;20210;-88
2021/08/23 09:43:08;;;;;;;4.17;3.87;;;22.40;1.00;;;;;;4993981;28;20212;-88
2021/08/23 09:45:34;;;;;;;5.17;4.77;;;22.10;1.00;;;;;;4977462;28;20207;-89
2021/08/23 09:48:02;;;;;;;5.33;4.40;;;21.90;1.00;;;;;;5001048;28;20196;-88
2021/08/23 09:50:41;;;;;;;4.60;4.20;;;21.70;1.00;;;;;;4999184;28;20879;-89
2021/08/23 09:53:15;;;;;;;4.53;4.10;;;21.50;1.00;;;;;;4989357;28;20254;-88
2021/08/23 09:55:43;;;;;;;6.27;5.07;;;21.40;1.00;;;;;;4980278;28;20344;-88
2021/08/23 09:58:09;;;;;;;5.77;4.47;;;21.30;1.00;;;;;;4979484;28;20378;-85
2021/08/23 10:00:37;;;;;;;6.00;5.40;;;21.20;1.00;;;;;;4994384;28;20234;-87
2021/08/23 10:03:12;;;;;;;8.83;4.97;;;21.00;1.00;;;;;;5003103;28;20205;-88
2021/08/23 10:05:39;;;;;;;4.60;4.20;;;21.10;1.00;;;;;;4994535;28;23211;-88
2021/08/23 10:08:05;;;;;;;5.37;4.60;;;;;;;;;;5011367;28;20242;-89
2021/08/23 10:10:41;;;;;;;7.30;5.13;;;21.10;1.00;;;;;;5000294;28;20709;-88
2021/08/23 10:13:10;;;;;;;4.90;4.50;;;21.20;1.00;;;;;;4986692;28;20229;-87
2021/08/23 10:15:38;;;;;;;4.60;4.00;;;21.40;1.00;;;;;;4989139;28;20202;-89
2021/08/23 10:18:14;;;;;;;6.20;4.87;;;;;;;;;;5001600;28;20274;-88
2021/08/23 10:20:40;;;;;;;4.37;3.97;;;;;;;;;;4996124;28;20469;-88
2021/08/23 10:23:07;;;;;;;6.97;4.80;;;;;;;;;;4999104;28;20198;-89
2021/08/23 10:25:57;;;;;;;5.13;3.87;;;;;;;;;;4998753;28;20205;-90
2021/08/23 10:28:25;;;;;;;4.33;3.90;;;;;;;;;;4998069;28;20647;-89
2021/08/23 10:30:51;;;;;;;5.47;4.40;;;;;;;;;;4983114;28;20216;-87
2021/08/23 10:33:19;;;;;;;4.27;3.73;;;21.90;1.00;;;;;;5005987;28;20214;-89
2021/08/23 10:35:59;;;;;;;4.97;3.97;;;22.00;1.00;;;;;;4986119;28;20189;-90
2021/08/23 10:38:27;;;;;;;4.43;3.93;;;22.30;1.00;;;;;;5002161;28;20217;-89
2021/08/23 10:41:06;;;;;;;5.90;4.77;;;22.50;1.00;;;;;;5000064;28;20188;-88
2021/08/23 10:43:44;;;;;;;5.07;4.67;;;22.40;1.00;;;;;;4999356;28;20178;-89
2021/08/23 10:46:25;;;;;;;6.93;4.17;;;22.50;1.00;;;;;;4997704;28;20194;-90
2021/08/23 10:48:52;;;;;;;4.63;4.10;;;22.60;1.00;;;;;;4994492;28;20205;-89
2021/08/23 10:51:48;;;;;;;5.73;4.60;;;22.90;1.00;;;;;;5001770;28;20274;-88
2021/08/23 10:54:21;;;;;;;6.50;4.50;;;23.60;1.00;;;;;;4996591;28;20250;-89
2021/08/23 10:57:00;;;;;;;5.10;4.10;;;23.60;1.00;;;;;;4998501;28;20618;-90
2021/08/23 10:59:36;;;;;;;6.50;4.60;;;24.10;1.00;;;;;;5012938;28;20195;-88
2021/08/23 11:02:18;;;;;;;4.80;4.40;;;24.10;1.00;;;;;;4996363;28;20207;-90
2021/08/23 11:05:25;;;;;;;4.85;4.20;;;24.20;1.00;;;;;;4961188;28;20751;-89
2021/08/23 11:07:59;;;;;;;5.32;3.83;;;24.40;1.00;;;;;;5000073;28;20190;-88
2021/08/23 11:10:26;;;;;;;4.38;3.97;;;24.40;1.00;;;;;;5001248;28;20261;-88
2021/08/23 11:12:57;;;;;;;4.40;3.97;;;24.70;1.00;;;;;;5000202;28;20207;-87
2021/08/23 11:15:32;;;;;;;4.93;4.40;;;24.70;1.00;;;;;;5002491;28;20199;-88
2021/08/23 11:18:04;;;;;;;5.45;4.15;;;24.90;1.00;;;;;;5001889;28;20217;-89
2021/08/23 11:20:33;;;;;;;5.65;4.00;;;25.10;1.00;;;;;;4997700;28;20212;-90
2021/08/23 11:23:08;;;;;;;4.95;4.05;;;25.10;1.00;;;;;;5017019;28;20243;-87
2021/08/23 11:25:41;;;;;;;5.70;4.60;;;25.50;1.00;;;;;;4999791;28;20223;-88
2021/08/23 11:28:20;;;;;;;7.65;4.55;;;25.30;1.00;;;;;;4998245;28;20644;-88
2021/08/23 11:30:49;;;;;;;4.00;3.58;;;25.30;1.00;;;;;;4984182;28;20283;-90
2021/08/23 11:33:36;;;;;;;7.32;4.15;;;25.40;1.00;;;;;;5003839;28;20188;-90
2021/08/23 11:36:15;;;;;;;5.07;4.03;;;25.60;1.00;;;;;;5000705;28;20193;-89
2021/08/23 11:38:41;;;;;;;6.65;4.45;;;25.70;1.00;;;;;;4996303;28;20253;-88
2021/08/23 11:41:10;;;;;;;4.45;4.05;;;26.30;1.00;;;;;;5000141;28;20199;-88
2021/08/23 11:43:36;;;;;;;4.28;3.88;;;26.30;1.00;;;;;;5006302;28;20586;-88
2021/08/23 11:46:03;;;;;;;4.38;3.97;;;26.90;1.00;;;;;;5002352;28;20185;-87
2021/08/23 11:48:29;;;;;;;4.50;4.10;;;27.60;1.00;;;;;;5004542;28;20232;-88
2021/08/23 11:50:56;;;;;;;6.63;3.95;;;28.40;1.00;;;;;;5007091;28;20200;-87
2021/08/23 11:53:23;;;;;;;4.15;3.75;;;28.30;1.00;;;;;;4988933;28;20220;-87
2021/08/23 11:55:50;;;;;;;5.05;3.90;;;28.30;1.00;;;;;;4988340;28;20268;-88
2021/08/23 11:58:21;;;;;;;4.28;3.83;;;28.30;1.00;;;;;;5005052;28;20216;-87
2021/08/23 12:01:02;;;;;;;4.15;3.75;;;28.00;1.00;;;;;;5002615;28;20674;-87
2021/08/23 12:03:31;;;;;;;3.95;3.65;;;28.40;1.00;;;;;;5001721;28;20234;-88
2021/08/23 12:06:08;;;;;;;4.75;4.03;;;29.30;1.00;;;;;;5002061;28;20708;-88
2021/08/23 12:08:38;;;;;;;4.15;3.78;;;30.60;1.00;;;;;;5002372;28;20707;-89
2021/08/23 12:11:10;;;;;;;4.00;3.70;;;31.40;1.00;;;;;;4982908;28;20201;-89
2021/08/23 12:13:48;;;;;;;3.78;3.47;;;30.90;1.00;;;;;;4990143;28;20889;-88
2021/08/23 12:16:19;;;;;;;4.20;3.80;;;30.70;1.00;;;;;;4980769;28;20187;-88
2021/08/23 12:18:50;;;;;;;4.10;3.70;;;30.20;1.00;;;;;;4999691;28;20223;-88
2021/08/23 12:21:26;;;;;;;4.10;3.53;;;29.70;1.00;;;;;;4997788;28;20187;-86
2021/08/23 12:24:00;;;;;;;4.00;3.60;;;29.60;1.00;;;;;;4996926;28;20669;-87
2021/08/23 12:26:39;;;;;;;3.92;3.63;;;29.20;1.00;;;;;;4997323;28;20184;-86
2021/08/23 12:29:15;;;;;;;4.65;3.88;;;28.60;1.00;;;;;;5003008;28;20196;-87
2021/08/23 12:31:58;;;;;;;4.50;3.67;;;27.10;1.00;;;;;;4995861;28;20196;-87
2021/08/23 12:34:29;;;;;;;4.57;4.13;;;27.00;1.00;;;;;;4997691;28;20199;-89
2021/08/23 12:37:02;;;;;;;4.25;3.67;;;26.70;1.00;;;;;;4984379;28;20197;-91
2021/08/23 12:39:30;;;;;;;3.72;3.45;;;25.40;1.00;;;;;;5001971;28;20187;-89
2021/08/23 12:42:01;;;;;;;4.95;4.32;;;25.40;1.00;;;;;;4994586;28;20286;-91
2021/08/23 12:44:27;;;;;;;4.40;4.00;;;24.50;1.00;;;;;;5006840;28;20554;-88
2021/08/23 12:46:53;;;;;;;5.03;4.43;;;24.10;1.00;;;;;;4986863;28;20261;-86
2021/08/23 12:49:19;;;;;;;6.10;5.30;;;;;;;;;;4995305;28;20232;-86
2021/08/23 12:51:47;;;;;;;5.03;4.23;;;22.70;1.00;;;;;;4996364;28;20190;-88
2021/08/23 12:54:14;;;;;;;5.60;4.13;;;21.70;1.00;;;;;;4998200;28;20514;-87
2021/08/23 12:56:40;;;;;;;6.87;4.80;;;20.40;1.00;;;;;;4988466;28;20199;-87
2021/08/23 12:59:06;;;;;;;6.00;4.40;;;20.40;1.00;;;;;;5000015;28;20213;-86
2021/08/23 13:01:34;;;;;;;5.47;4.43;;;19.70;1.00;;;;;;4998364;28;20197;-89
2021/08/23 13:04:00;;;;;;;7.20;4.80;;;19.70;1.00;;;;;;4980759;28;20218;-89